Time;durP1;ratioP1;P1;durP2;ratioP2;P2;SDS_P1;SDS_P2;PMS_P1;PMS_P2;Temp;Humidity;BMP_temperature;BMP_pressure;BME280_temperature;BME280_humidity;BME280_pressure;Samples;Min_cycle;Max_cycle;Signal;HPM_P1;HPM_P2
2024/01/16 00:00:51;;;;;;;5.07;4.20;;;5.50;73.80;;;;;;5117636;28;20024;-78
2024/01/16 00:03:16;;;;;;;4.63;3.65;;;5.50;73.80;;;;;;5132779;27;20110;-78
2024/01/16 00:05:42;;;;;;;4.45;3.65;;;5.40;73.70;;;;;;5119185;27;20030;-79
2024/01/16 00:08:08;;;;;;;4.80;3.75;;;5.50;73.70;;;;;;5119172;27;20047;-78
2024/01/16 00:10:33;;;;;;;4.68;4.18;;;5.50;73.70;;;;;;5137152;27;20088;-79
2024/01/16 00:12:59;;;;;;;5.15;4.00;;;5.50;73.80;;;;;;5119734;27;20431;-79
2024/01/16 00:15:25;;;;;;;4.30;3.35;;;5.50;73.80;;;;;;5137628;27;20030;-78
2024/01/16 00:17:51;;;;;;;5.53;3.90;;;5.50;73.80;;;;;;5137557;27;20383;-79
2024/01/16 00:20:17;;;;;;;4.10;3.70;;;5.50;73.70;;;;;;5137343;27;20026;-78
2024/01/16 00:22:42;;;;;;;4.47;3.70;;;5.40;73.70;;;;;;5137509;27;20448;-78
2024/01/16 00:25:08;;;;;;;4.38;3.65;;;5.50;73.70;;;;;;5118721;27;20074;-79
2024/01/16 00:27:34;;;;;;;4.60;3.70;;;5.50;73.70;;;;;;5137729;27;20027;-79
2024/01/16 00:30:00;;;;;;;4.47;3.70;;;5.50;73.70;;;;;;5137405;27;20027;-78
2024/01/16 00:32:25;;;;;;;5.30;4.10;;;5.50;73.70;;;;;;5137424;27;20027;-79
2024/01/16 00:34:51;;;;;;;4.68;3.78;;;5.50;73.70;;;;;;5137405;27;20384;-80
2024/01/16 00:37:16;;;;;;;4.57;3.80;;;5.50;73.80;;;;;;5137302;27;20463;-78
2024/01/16 00:39:42;;;;;;;4.75;3.85;;;5.50;73.70;;;;;;5118611;27;20027;-79
2024/01/16 00:42:08;;;;;;;4.82;3.85;;;5.50;73.70;;;;;;5137131;27;20039;-78
2024/01/16 00:44:34;;;;;;;4.35;3.75;;;5.50;73.80;;;;;;5137151;27;20354;-78
2024/01/16 00:47:01;;;;;;;4.00;3.60;;;5.50;73.80;;;;;;5137030;27;20021;-79
2024/01/16 00:49:28;;;;;;;4.57;4.03;;;5.50;73.70;;;;;;5136724;27;20031;-79
2024/01/16 00:51:53;;;;;;;4.18;3.70;;;5.50;73.70;;;;;;5118226;27;20039;-78
2024/01/16 00:54:19;;;;;;;4.55;3.83;;;5.50;73.70;;;;;;5118168;27;20023;-78
2024/01/16 00:56:45;;;;;;;4.38;3.72;;;5.50;73.70;;;;;;5137037;27;20039;-78
2024/01/16 00:59:10;;;;;;;4.53;3.50;;;5.50;73.70;;;;;;5118832;27;20019;-78
2024/01/16 01:01:39;;;;;;;4.28;3.80;;;5.50;73.70;;;;;;5136594;27;20023;-78
2024/01/16 01:04:05;;;;;;;4.72;4.00;;;5.50;73.70;;;;;;5136433;27;20033;-78
2024/01/16 01:06:30;;;;;;;5.03;4.03;;;5.50;73.70;;;;;;5136970;27;20469;-78
2024/01/16 01:08:56;;;;;;;4.57;3.80;;;5.50;73.70;;;;;;5114226;28;20100;-77
2024/01/16 01:11:21;;;;;;;5.35;4.25;;;5.50;73.70;;;;;;5118505;28;20072;-78
2024/01/16 01:13:47;;;;;;;4.45;3.95;;;5.50;73.70;;;;;;5120523;28;20114;-78
2024/01/16 01:16:13;;;;;;;4.60;3.95;;;5.50;73.70;;;;;;5117422;28;20486;-78
2024/01/16 01:18:38;;;;;;;5.63;4.10;;;5.50;73.70;;;;;;5117136;28;20084;-78
2024/01/16 01:21:04;;;;;;;4.88;3.80;;;5.50;73.70;;;;;;5117351;28;20471;-79
2024/01/16 01:23:30;;;;;;;4.35;3.70;;;5.50;73.70;;;;;;5118758;28;20370;-77
2024/01/16 01:25:56;;;;;;;4.20;3.80;;;5.50;73.70;;;;;;5116230;28;20034;-78
2024/01/16 01:28:21;;;;;;;4.57;3.92;;;5.50;73.70;;;;;;5116346;28;20393;-78
2024/01/16 01:30:47;;;;;;;4.20;3.78;;;5.50;73.70;;;;;;5115860;28;20027;-79
2024/01/16 01:33:13;;;;;;;4.30;3.80;;;5.50;73.70;;;;;;5115823;28;20031;-81
2024/01/16 01:35:38;;;;;;;4.30;3.90;;;5.50;73.70;;;;;;5116087;28;20020;-79
2024/01/16 01:38:04;;;;;;;4.57;3.70;;;5.50;73.70;;;;;;5111803;28;20024;-78
2024/01/16 01:40:30;;;;;;;4.60;3.80;;;5.50;73.70;;;;;;5103539;28;20019;-78
2024/01/16 01:42:55;;;;;;;5.22;3.83;;;5.50;73.70;;;;;;5115328;28;20032;-77
2024/01/16 01:45:21;;;;;;;5.05;4.05;;;5.50;73.70;;;;;;5114364;28;20019;-78
2024/01/16 01:47:47;;;;;;;4.20;3.78;;;5.50;73.70;;;;;;5114933;28;20024;-79
2024/01/16 01:50:14;;;;;;;4.57;4.00;;;5.50;73.70;;;;;;5115210;28;20458;-78
2024/01/16 01:52:41;;;;;;;5.13;3.63;;;5.50;73.70;;;;;;5115386;28;20474;-78
2024/01/16 01:55:12;;;;;;;4.40;3.47;;;5.50;73.70;;;;;;5115237;27;20047;-78
2024/01/16 01:57:38;;;;;;;4.90;4.07;;;5.50;73.70;;;;;;5102790;28;20066;-78
2024/01/16 02:00:04;;;;;;;4.60;3.90;;;5.50;73.70;;;;;;5093331;28;20032;-77
2024/01/16 02:02:32;;;;;;;4.55;3.90;;;5.50;73.70;;;;;;5102917;28;20035;-77
2024/01/16 02:04:57;;;;;;;4.63;3.85;;;5.50;73.70;;;;;;5114756;28;20466;-78
2024/01/16 02:07:24;;;;;;;4.00;3.60;;;5.50;73.70;;;;;;5116879;27;20038;-78
2024/01/16 02:09:50;;;;;;;4.47;4.03;;;5.50;73.70;;;;;;5117442;27;20031;-78
2024/01/16 02:12:16;;;;;;;3.92;3.50;;;5.50;73.70;;;;;;5135380;27;20053;-79
2024/01/16 02:14:41;;;;;;;4.07;3.67;;;5.50;73.70;;;;;;5135403;27;20043;-77
2024/01/16 02:17:07;;;;;;;4.88;4.00;;;5.50;73.70;;;;;;5116774;27;20027;-78
2024/01/16 02:19:33;;;;;;;4.43;3.92;;;5.50;73.70;;;;;;5102910;28;20027;-78
2024/01/16 02:22:09;;;;;;;4.93;4.10;;;5.50;73.70;;;;;;5114733;28;20032;-78
2024/01/16 02:24:34;;;;;;;4.68;3.75;;;5.50;73.70;;;;;;5096664;28;20040;-78
2024/01/16 02:27:00;;;;;;;5.43;4.05;;;5.50;73.70;;;;;;5114561;28;20036;-77
2024/01/16 02:29:26;;;;;;;4.07;3.67;;;5.50;73.70;;;;;;5114312;28;20094;-78
2024/01/16 02:31:51;;;;;;;4.75;3.90;;;5.50;73.70;;;;;;5099163;27;20019;-78
2024/01/16 02:34:18;;;;;;;5.18;3.97;;;5.50;73.70;;;;;;5114728;27;20114;-78
2024/01/16 02:36:43;;;;;;;4.10;3.60;;;5.50;73.80;;;;;;5134950;27;20162;-78
2024/01/16 02:39:09;;;;;;;5.80;4.63;;;5.50;73.70;;;;;;5116574;27;20461;-79
2024/01/16 02:41:35;;;;;;;4.68;3.72;;;5.50;73.70;;;;;;5102003;28;20028;-78
2024/01/16 02:44:01;;;;;;;4.80;3.92;;;5.50;73.70;;;;;;5095743;28;20023;-78
2024/01/16 02:46:27;;;;;;;4.55;4.00;;;5.50;73.70;;;;;;5095930;28;20024;-77
2024/01/16 02:48:52;;;;;;;4.85;4.18;;;5.50;73.70;;;;;;5127295;27;20027;-78
2024/01/16 02:51:18;;;;;;;4.95;4.05;;;5.50;73.80;;;;;;5116756;28;20151;-79
2024/01/16 02:53:43;;;;;;;5.13;3.83;;;5.50;73.80;;;;;;5116334;28;20539;-78
2024/01/16 02:56:09;;;;;;;4.30;3.90;;;5.50;73.80;;;;;;5116273;28;20110;-78
2024/01/16 02:58:35;;;;;;;5.05;3.85;;;5.50;73.80;;;;;;5116090;28;20027;-78
2024/01/16 03:01:01;;;;;;;4.72;3.80;;;5.50;73.80;;;;;;5117104;28;20070;-78
2024/01/16 03:03:27;;;;;;;4.90;4.40;;;5.50;73.70;;;;;;5135653;27;20563;-78
2024/01/16 03:05:53;;;;;;;4.78;4.05;;;5.50;73.80;;;;;;5136129;28;20032;-79
2024/01/16 03:08:18;;;;;;;4.78;4.15;;;5.50;73.80;;;;;;5116635;28;20473;-78
2024/01/16 03:10:44;;;;;;;4.95;3.85;;;5.50;73.80;;;;;;5136094;27;20055;-78
2024/01/16 03:13:10;;;;;;;4.55;3.90;;;5.50;73.80;;;;;;5135416;27;20027;-77
2024/01/16 03:15:36;;;;;;;4.57;4.10;;;5.50;73.80;;;;;;5138771;27;20415;-78
2024/01/16 03:18:01;;;;;;;4.60;4.00;;;5.50;73.80;;;;;;5110678;28;20031;-79
2024/01/16 03:20:28;;;;;;;4.03;3.50;;;5.50;73.80;;;;;;5100139;28;20463;-81
2024/01/16 03:22:54;;;;;;;4.53;3.78;;;5.50;73.80;;;;;;5099837;28;20043;-78
2024/01/16 03:25:21;;;;;;;5.43;4.35;;;5.50;73.80;;;;;;5118223;27;20047;-79
2024/01/16 03:27:47;;;;;;;5.22;3.90;;;5.50;73.80;;;;;;5117963;28;20081;-77
2024/01/16 03:30:12;;;;;;;4.80;3.88;;;5.50;73.80;;;;;;5117946;28;20027;-78
2024/01/16 03:32:38;;;;;;;4.57;3.90;;;5.50;73.80;;;;;;5117871;28;20027;-78
2024/01/16 03:35:07;;;;;;;5.00;4.10;;;5.50;73.80;;;;;;5119818;27;20031;-79
2024/01/16 03:37:33;;;;;;;5.22;3.83;;;5.50;73.80;;;;;;5121784;27;20034;-79
2024/01/16 03:40:00;;;;;;;4.80;3.90;;;5.50;73.80;;;;;;5121409;27;20408;-78
2024/01/16 03:42:25;;;;;;;5.22;4.07;;;5.50;73.80;;;;;;5119587;27;20499;-78
2024/01/16 03:44:51;;;;;;;4.53;3.67;;;5.50;73.80;;;;;;5119874;27;20035;-77
2024/01/16 03:47:17;;;;;;;4.70;3.95;;;5.50;73.80;;;;;;5138246;27;20548;-78
2024/01/16 03:49:43;;;;;;;4.13;3.72;;;5.50;73.80;;;;;;5100020;28;20015;-78
2024/01/16 03:52:08;;;;;;;4.47;4.07;;;5.50;73.80;;;;;;5099556;28;20031;-78
2024/01/16 03:54:34;;;;;;;5.38;4.22;;;5.50;73.80;;;;;;5118012;27;20040;-78
2024/01/16 03:57:00;;;;;;;4.95;4.28;;;5.50;73.80;;;;;;5098919;28;20024;-78
2024/01/16 03:59:25;;;;;;;4.85;4.22;;;5.50;73.80;;;;;;5117475;28;20020;-77
2024/01/16 04:01:52;;;;;;;4.72;4.05;;;5.50;73.80;;;;;;5101988;27;20034;-78
2024/01/16 04:04:18;;;;;;;4.95;3.85;;;5.50;73.80;;;;;;5119217;27;20042;-78
2024/01/16 04:06:43;;;;;;;5.80;4.68;;;5.50;73.80;;;;;;5137952;27;20028;-77
2024/01/16 04:09:18;;;;;;;4.40;3.80;;;5.50;73.80;;;;;;5115770;28;20054;-79
2024/01/16 04:11:44;;;;;;;4.90;4.40;;;5.50;73.80;;;;;;5117155;28;20112;-78
2024/01/16 04:14:10;;;;;;;4.18;3.78;;;5.50;73.80;;;;;;5115926;28;20440;-78
2024/01/16 04:16:36;;;;;;;5.30;4.32;;;5.50;73.80;;;;;;5115218;28;20106;-78
2024/01/16 04:19:02;;;;;;;5.05;4.00;;;5.50;73.80;;;;;;5096433;28;20110;-78
2024/01/16 04:21:27;;;;;;;4.70;4.20;;;5.50;73.80;;;;;;5097136;28;20035;-78
2024/01/16 04:23:53;;;;;;;5.43;4.47;;;5.50;73.80;;;;;;5096561;28;20039;-78
2024/01/16 04:26:18;;;;;;;4.80;4.03;;;5.50;73.80;;;;;;5094418;28;20032;-78
2024/01/16 04:28:44;;;;;;;5.57;4.40;;;5.50;73.80;;;;;;5096335;28;20060;-78
2024/01/16 04:31:11;;;;;;;4.68;4.10;;;5.50;73.80;;;;;;5096402;28;20108;-80
2024/01/16 04:33:38;;;;;;;5.05;4.28;;;5.50;73.80;;;;;;5115566;28;20036;-79
2024/01/16 04:36:04;;;;;;;4.68;3.65;;;5.50;73.80;;;;;;5115399;28;20028;-79
2024/01/16 04:38:30;;;;;;;4.82;4.32;;;5.50;73.80;;;;;;5115937;28;20034;-78
2024/01/16 04:40:55;;;;;;;5.03;4.38;;;5.50;73.80;;;;;;5116827;28;20016;-78
2024/01/16 04:43:21;;;;;;;4.78;4.07;;;5.50;73.80;;;;;;5116427;28;20374;-78
2024/01/16 04:45:47;;;;;;;4.80;4.10;;;5.50;73.80;;;;;;5116929;28;20024;-77
2024/01/16 04:48:12;;;;;;;5.65;4.32;;;5.50;73.80;;;;;;5106986;28;20065;-77
2024/01/16 04:50:38;;;;;;;4.20;3.80;;;5.50;73.80;;;;;;5096997;28;20024;-79
2024/01/16 04:53:04;;;;;;;5.28;4.30;;;5.50;73.80;;;;;;5095992;28;20024;-78
2024/01/16 04:55:30;;;;;;;5.20;4.20;;;5.50;73.80;;;;;;5096527;28;20024;-78
2024/01/16 04:57:56;;;;;;;5.20;4.10;;;5.50;73.80;;;;;;5111230;28;20054;-78
2024/01/16 05:00:22;;;;;;;4.47;3.95;;;5.50;73.80;;;;;;5117037;28;20028;-78
2024/01/16 05:02:48;;;;;;;4.93;4.30;;;5.50;73.80;;;;;;5114140;28;20051;-79
2024/01/16 05:05:14;;;;;;;4.88;4.03;;;5.50;73.80;;;;;;5100793;28;20055;-78
2024/01/16 05:07:40;;;;;;;5.05;4.20;;;5.50;73.80;;;;;;5108374;28;20043;-78
2024/01/16 05:10:07;;;;;;;5.43;4.32;;;5.50;73.80;;;;;;5104462;28;20024;-77
2024/01/16 05:12:32;;;;;;;4.85;4.07;;;5.50;73.80;;;;;;5098729;28;20036;-80
2024/01/16 05:14:58;;;;;;;5.40;4.25;;;5.50;73.80;;;;;;5095969;28;20021;-78
2024/01/16 05:17:24;;;;;;;5.47;4.43;;;5.50;73.80;;;;;;5096224;28;20076;-79
2024/01/16 05:19:50;;;;;;;5.15;4.32;;;5.50;73.80;;;;;;5098530;28;20028;-80
2024/01/16 05:22:15;;;;;;;4.97;4.28;;;5.50;73.80;;;;;;5115832;28;20019;-77
2024/01/16 05:24:41;;;;;;;5.32;4.20;;;5.50;73.80;;;;;;5108802;28;20162;-77
2024/01/16 05:27:07;;;;;;;5.13;4.63;;;5.50;73.80;;;;;;5095578;28;20028;-78
2024/01/16 05:29:32;;;;;;;5.75;4.18;;;5.50;73.80;;;;;;5111000;28;20118;-78
2024/01/16 05:31:58;;;;;;;5.38;4.47;;;5.50;73.80;;;;;;5111742;28;20384;-76
2024/01/16 05:34:24;;;;;;;5.63;4.20;;;5.50;74.40;;;;;;5106445;28;20031;-78
2024/01/16 05:36:50;;;;;;;4.65;4.10;;;5.50;73.80;;;;;;5093677;28;20024;-85
2024/01/16 05:39:17;;;;;;;5.10;4.60;;;5.50;73.80;;;;;;5109447;28;20031;-86
2024/01/16 05:41:49;;;;;;;5.38;4.53;;;5.50;73.80;;;;;;5113208;28;20101;-87
2024/01/16 05:44:15;;;;;;;5.07;3.95;;;5.50;73.80;;;;;;5110033;28;20020;-83
2024/01/16 05:46:41;;;;;;;4.53;3.95;;;5.50;73.80;;;;;;5101908;28;20091;-85
2024/01/16 05:49:07;;;;;;;17.77;12.68;;;5.50;73.80;;;;;;5104421;28;20435;-82
2024/01/16 05:51:33;;;;;;;22.80;18.70;;;5.50;75.00;;;;;;5100100;28;20024;-81
2024/01/16 05:53:58;;;;;;;33.28;29.27;;;5.60;76.40;;;;;;5102686;28;20028;-81
2024/01/16 05:56:24;;;;;;;28.45;24.70;;;5.80;76.40;;;;;;5104167;28;20161;-82
2024/01/16 05:58:55;;;;;;;27.95;23.10;;;5.90;76.10;;;;;;5098804;27;1565173;-83
2024/01/16 06:01:21;;;;;;;29.58;24.45;;;5.90;75.90;;;;;;5131715;28;20059;-81
2024/01/16 06:03:48;;;;;;;24.27;20.83;;;6.00;75.80;;;;;;5132350;28;20023;-82
2024/01/16 06:06:14;;;;;;;27.35;22.48;;;6.00;75.70;;;;;;5131739;28;20027;-84
2024/01/16 06:08:40;;;;;;;26.92;21.80;;;6.00;75.70;;;;;;5131925;28;20078;-83
2024/01/16 06:11:06;;;;;;;25.60;21.40;;;6.00;75.70;;;;;;5131908;28;20457;-84
2024/01/16 06:13:32;;;;;;;23.00;19.02;;;6.00;75.70;;;;;;5131773;28;20020;-82
2024/01/16 06:15:58;;;;;;;22.23;17.48;;;6.00;75.80;;;;;;5131497;28;20028;-81
2024/01/16 06:18:24;;;;;;;19.17;15.98;;;6.00;75.80;;;;;;5131885;28;20024;-82
2024/01/16 06:20:49;;;;;;;23.60;17.98;;;6.00;75.80;;;;;;5131942;28;20027;-82
2024/01/16 06:23:15;;;;;;;16.92;13.90;;;6.00;75.80;;;;;;5132143;28;20028;-82
2024/01/16 06:25:40;;;;;;;19.58;15.68;;;6.00;75.80;;;;;;5131929;28;20039;-83
2024/01/16 06:28:07;;;;;;;19.50;14.85;;;6.00;75.90;;;;;;5131813;28;20034;-82
2024/01/16 06:30:33;;;;;;;16.23;12.32;;;5.90;75.80;;;;;;5131582;28;20031;-82
2024/01/16 06:32:59;;;;;;;18.08;14.05;;;5.90;75.90;;;;;;5132064;28;20393;-82
2024/01/16 06:35:25;;;;;;;19.67;15.18;;;6.00;76.50;;;;;;5115558;28;20031;-82
2024/01/16 06:37:51;;;;;;;17.52;13.02;;;6.00;75.90;;;;;;5134192;28;20040;-82
2024/01/16 06:40:16;;;;;;;17.80;13.88;;;6.00;75.90;;;;;;5115667;28;20499;-81
2024/01/16 06:42:42;;;;;;;17.50;12.43;;;6.00;75.80;;;;;;5132917;28;20381;-81
2024/01/16 06:45:08;;;;;;;15.98;12.60;;;6.10;75.90;;;;;;5113449;28;20027;-83
2024/01/16 06:47:34;;;;;;;13.90;10.85;;;6.10;75.80;;;;;;5093709;28;20458;-82
2024/01/16 06:50:00;;;;;;;15.43;11.30;;;6.10;75.70;;;;;;5094012;28;20030;-83
2024/01/16 06:52:25;;;;;;;13.32;10.38;;;6.10;75.70;;;;;;5112499;28;20024;-81
2024/01/16 06:54:51;;;;;;;11.50;8.88;;;6.20;75.70;;;;;;5094085;28;20051;-82
2024/01/16 06:57:17;;;;;;;10.70;8.52;;;6.20;75.60;;;;;;5111409;28;20508;-82
2024/01/16 06:59:42;;;;;;;10.10;7.78;;;6.20;75.60;;;;;;5110466;28;20105;-82
2024/01/16 07:02:08;;;;;;;9.43;7.90;;;6.20;75.50;;;;;;5110950;28;20024;-84
2024/01/16 07:04:34;;;;;;;9.63;7.93;;;6.20;75.40;;;;;;5092026;28;20466;-81
2024/01/16 07:07:00;;;;;;;9.32;6.88;;;6.20;75.40;;;;;;5110799;28;20028;-82
2024/01/16 07:09:27;;;;;;;7.55;5.88;;;6.20;75.30;;;;;;5067032;28;20162;-81
2024/01/16 07:11:53;;;;;;;8.32;6.40;;;6.20;75.30;;;;;;5097156;28;20039;-81
2024/01/16 07:14:19;;;;;;;8.75;6.53;;;6.30;75.30;;;;;;5097307;28;20039;-81
2024/01/16 07:16:45;;;;;;;8.00;5.93;;;6.30;75.30;;;;;;5078705;28;20173;-81
2024/01/16 07:19:12;;;;;;;7.72;5.88;;;6.30;75.20;;;;;;5078308;28;20047;-82
2024/01/16 07:21:37;;;;;;;7.28;6.13;;;6.30;75.10;;;;;;5100540;28;20024;-82
2024/01/16 07:24:03;;;;;;;6.35;4.85;;;6.30;75.10;;;;;;5086078;28;20034;-82
2024/01/16 07:26:29;;;;;;;6.22;5.20;;;6.30;75.00;;;;;;5078892;28;20034;-82
2024/01/16 07:28:55;;;;;;;6.95;5.20;;;6.40;75.00;;;;;;5096687;28;20420;-82
2024/01/16 07:31:21;;;;;;;6.55;4.90;;;6.40;75.00;;;;;;5096329;28;20016;-82
2024/01/16 07:33:47;;;;;;;6.50;5.28;;;6.40;74.90;;;;;;5078215;28;20394;-82
2024/01/16 07:36:13;;;;;;;6.28;5.05;;;6.40;74.80;;;;;;5078624;28;20114;-81
2024/01/16 07:38:39;;;;;;;6.25;5.05;;;6.50;74.80;;;;;;5096190;28;20028;-82
2024/01/16 07:41:05;;;;;;;6.68;5.07;;;6.50;75.30;;;;;;5096176;28;20093;-81
2024/01/16 07:43:31;;;;;;;9.52;5.30;;;6.50;74.70;;;;;;5096139;28;20024;-81
2024/01/16 07:45:57;;;;;;;5.82;4.65;;;6.60;74.70;;;;;;5095231;28;20028;-81
2024/01/16 07:48:23;;;;;;;7.00;5.13;;;6.60;74.60;;;;;;5076862;28;20592;-82
2024/01/16 07:50:49;;;;;;;6.25;5.25;;;6.60;74.50;;;;;;5077955;28;20425;-82
2024/01/16 07:53:15;;;;;;;6.00;3.97;;;6.60;74.50;;;;;;5096040;28;20458;-78
2024/01/16 07:55:44;;;;;;;6.60;4.68;;;6.60;74.40;;;;;;5095532;28;20039;-83
2024/01/16 07:58:14;;;;;;;6.20;5.00;;;6.70;74.40;;;;;;5092488;28;20080;-80
2024/01/16 08:00:40;;;;;;;5.85;4.80;;;6.70;74.30;;;;;;5097165;28;20455;-89
2024/01/16 08:03:11;;;;;;;6.32;5.35;;;6.80;74.20;;;;;;5081887;28;20119;-88
2024/01/16 08:05:37;;;;;;;4.93;4.07;;;6.80;74.20;;;;;;5103527;28;20028;-88
2024/01/16 08:08:04;;;;;;;5.95;4.43;;;6.80;74.10;;;;;;5100641;28;20032;-89
2024/01/16 08:10:29;;;;;;;6.13;4.70;;;6.80;74.00;;;;;;5100012;28;20024;-90
2024/01/16 08:12:55;;;;;;;6.13;5.10;;;6.90;74.10;;;;;;5098585;28;20045;-87
2024/01/16 08:15:21;;;;;;;5.97;4.68;;;6.90;74.00;;;;;;5097211;28;20366;-88
2024/01/16 08:17:47;;;;;;;6.40;5.05;;;7.00;73.90;;;;;;5078261;28;20034;-86
2024/01/16 08:20:13;;;;;;;6.57;5.10;;;7.00;73.80;;;;;;5100186;28;20025;-88
2024/01/16 08:22:39;;;;;;;5.93;5.22;;;7.10;73.80;;;;;;5087671;28;20051;-88
2024/01/16 08:25:05;;;;;;;5.90;5.03;;;7.10;73.70;;;;;;5105717;28;20036;-87
2024/01/16 08:27:31;;;;;;;6.45;5.20;;;7.10;73.60;;;;;;5105013;28;20028;-86
2024/01/16 08:29:57;;;;;;;6.90;5.05;;;7.10;73.50;;;;;;5087758;28;20024;-89
2024/01/16 08:32:23;;;;;;;5.28;4.32;;;7.20;73.40;;;;;;5105424;28;20472;-87
2024/01/16 08:34:48;;;;;;;6.65;5.07;;;7.20;73.40;;;;;;5102705;28;20036;-87
2024/01/16 08:37:14;;;;;;;5.88;4.90;;;7.20;73.30;;;;;;5098886;28;20032;-87
2024/01/16 08:39:40;;;;;;;6.07;5.20;;;7.20;73.30;;;;;;5080787;28;20028;-87
2024/01/16 08:42:06;;;;;;;6.93;5.63;;;7.20;73.20;;;;;;5096990;28;20552;-86
2024/01/16 08:44:31;;;;;;;5.90;4.82;;;7.20;73.20;;;;;;5061771;28;20020;-86
2024/01/16 08:47:02;;;;;;;6.22;4.90;;;7.20;73.10;;;;;;5096463;28;20024;-88
2024/01/16 08:49:28;;;;;;;7.82;5.25;;;7.20;73.10;;;;;;5083713;28;20028;-91
2024/01/16 08:51:53;;;;;;;5.65;4.78;;;7.20;73.10;;;;;;5078113;28;20085;-89
2024/01/16 08:54:22;;;;;;;5.88;4.97;;;7.20;73.00;;;;;;5078513;28;20470;-86
2024/01/16 08:56:48;;;;;;;6.03;4.53;;;7.20;73.00;;;;;;5097477;28;20103;-87
2024/01/16 08:59:14;;;;;;;5.82;4.93;;;7.20;73.00;;;;;;5098688;28;20079;-86
2024/01/16 09:01:41;;;;;;;5.10;4.15;;;7.20;73.00;;;;;;5098655;28;20027;-87
2024/01/16 09:04:07;;;;;;;6.15;5.05;;;7.20;72.90;;;;;;5097826;28;20031;-88
2024/01/16 09:06:33;;;;;;;5.90;4.90;;;7.20;72.90;;;;;;5098125;28;20024;-89
2024/01/16 09:08:58;;;;;;;6.07;5.13;;;7.20;72.90;;;;;;5096259;28;20386;-88
2024/01/16 09:11:24;;;;;;;6.18;4.88;;;7.20;72.90;;;;;;5078334;28;20032;-88
2024/01/16 09:13:51;;;;;;;5.55;4.50;;;7.10;72.80;;;;;;5096126;28;20059;-89
2024/01/16 09:16:17;;;;;;;5.93;4.63;;;7.20;72.90;;;;;;5096893;28;20027;-88
2024/01/16 09:18:43;;;;;;;6.20;5.07;;;7.10;72.80;;;;;;5081102;28;20040;-89
2024/01/16 09:21:08;;;;;;;5.68;4.57;;;7.20;72.90;;;;;;5105399;28;20028;-88
2024/01/16 09:23:34;;;;;;;6.78;5.30;;;7.10;72.80;;;;;;5099649;28;20375;-87
2024/01/16 09:26:00;;;;;;;5.85;5.22;;;7.20;72.80;;;;;;5077988;28;20028;-88
2024/01/16 09:28:28;;;;;;;5.68;4.75;;;7.10;72.70;;;;;;5071978;28;20471;-85
2024/01/16 09:30:56;;;;;;;5.50;4.65;;;7.20;72.70;;;;;;5074872;28;20031;-88
2024/01/16 09:33:22;;;;;;;5.85;4.57;;;7.10;72.70;;;;;;5076111;28;20160;-76
2024/01/16 09:35:49;;;;;;;6.55;4.97;;;7.10;72.60;;;;;;5075646;28;20031;-82
2024/01/16 09:38:15;;;;;;;5.50;4.57;;;7.10;72.70;;;;;;5075283;28;20078;-81
2024/01/16 09:40:40;;;;;;;6.45;5.18;;;7.10;72.60;;;;;;5090070;28;20458;-82
2024/01/16 09:43:08;;;;;;;6.13;4.72;;;7.10;72.60;;;;;;5089648;28;20025;-79
2024/01/16 09:45:37;;;;;;;5.53;4.72;;;7.10;72.60;;;;;;5073864;28;20048;-80
2024/01/16 09:48:04;;;;;;;5.53;4.88;;;7.10;72.60;;;;;;5076834;28;20466;-82
2024/01/16 09:50:30;;;;;;;6.15;5.00;;;7.10;72.50;;;;;;5075513;28;20028;-80
2024/01/16 09:52:56;;;;;;;6.57;5.20;;;7.10;72.50;;;;;;5093624;28;20089;-82
2024/01/16 09:55:22;;;;;;;7.45;5.57;;;7.10;72.50;;;;;;5093451;28;20351;-80
2024/01/16 09:57:53;;;;;;;5.55;4.80;;;7.10;72.40;;;;;;5071072;28;20045;-80
2024/01/16 10:00:20;;;;;;;6.40;4.68;;;7.20;72.40;;;;;;5072638;28;20501;-81
2024/01/16 10:02:46;;;;;;;6.20;5.22;;;7.10;72.40;;;;;;5073527;28;20493;-81
2024/01/16 10:05:13;;;;;;;6.38;5.35;;;7.10;72.30;;;;;;5074142;28;20038;-81
2024/01/16 10:07:44;;;;;;;5.82;4.82;;;7.20;72.30;;;;;;5076863;28;20067;-80
2024/01/16 10:10:10;;;;;;;6.15;4.85;;;7.10;72.30;;;;;;5076095;28;20036;-82
2024/01/16 10:12:38;;;;;;;5.88;5.05;;;7.20;72.30;;;;;;5076480;28;20025;-82
2024/01/16 10:15:07;;;;;;;5.75;4.65;;;7.20;72.20;;;;;;5075209;28;20107;-79
2024/01/16 10:17:43;;;;;;;5.63;4.80;;;7.20;72.20;;;;;;5075361;28;20043;-79
2024/01/16 10:20:13;;;;;;;5.93;4.57;;;7.20;72.10;;;;;;5076361;28;20032;-81
2024/01/16 10:22:40;;;;;;;5.97;4.90;;;7.20;72.10;;;;;;5071470;28;20129;-80
2024/01/16 10:25:16;;;;;;;5.53;4.30;;;7.20;72.10;;;;;;5072418;28;20108;-80
2024/01/16 10:27:43;;;;;;;5.93;4.65;;;7.20;72.00;;;;;;5072419;28;20082;-82
2024/01/16 10:30:12;;;;;;;5.35;4.18;;;7.20;71.90;;;;;;5072292;28;20141;-80
2024/01/16 10:32:42;;;;;;;5.22;4.32;;;7.20;71.80;;;;;;5073539;28;20079;-81
2024/01/16 10:35:10;;;;;;;6.55;4.70;;;7.20;71.80;;;;;;5071827;28;20029;-81
2024/01/16 10:37:49;;;;;;;4.97;4.30;;;7.20;71.70;;;;;;5071635;28;20057;-80
2024/01/16 10:40:24;;;;;;;5.20;4.13;;;7.20;71.70;;;;;;5071895;28;20038;-79
2024/01/16 10:43:41;;;;;;;5.43;4.57;;;7.20;71.70;;;;;;5071876;28;20051;-81
2024/01/16 10:46:17;;;;;;;4.82;3.83;;;7.20;71.40;;;;;;5056827;28;20070;-81
2024/01/16 10:48:45;;;;;;;5.28;4.10;;;7.20;71.40;;;;;;5059067;28;20016;-82
2024/01/16 10:51:14;;;;;;;4.95;4.03;;;7.20;71.30;;;;;;5075453;28;20024;-82
2024/01/16 10:53:44;;;;;;;4.70;3.85;;;7.20;71.30;;;;;;5075170;28;20028;-81
2024/01/16 10:56:12;;;;;;;4.88;4.10;;;7.30;71.30;;;;;;5075693;28;20025;-81
2024/01/16 10:58:40;;;;;;;5.45;4.13;;;7.30;71.30;;;;;;5075093;28;20055;-80
2024/01/16 11:01:10;;;;;;;4.88;3.67;;;7.30;71.20;;;;;;5076941;28;20052;-80
2024/01/16 11:03:42;;;;;;;4.50;3.70;;;7.30;71.20;;;;;;5075225;28;20016;-80
2024/01/16 11:06:09;;;;;;;5.18;3.88;;;7.30;71.10;;;;;;5059306;28;20374;-82
2024/01/16 11:08:39;;;;;;;4.18;3.78;;;7.30;71.00;;;;;;5076521;28;20103;-81
2024/01/16 11:11:07;;;;;;;3.80;3.30;;;7.30;71.00;;;;;;5077176;28;20352;-80
2024/01/16 11:13:34;;;;;;;4.00;3.60;;;7.30;70.90;;;;;;5077126;28;20056;-80
2024/01/16 11:16:04;;;;;;;3.90;3.50;;;7.30;70.80;;;;;;5076849;28;20029;-79
2024/01/16 11:18:32;;;;;;;4.10;3.67;;;7.30;70.80;;;;;;5074958;28;20025;-81
2024/01/16 11:20:59;;;;;;;3.83;3.42;;;7.30;70.80;;;;;;5075089;28;20035;-81
2024/01/16 11:23:25;;;;;;;4.03;3.20;;;7.30;70.70;;;;;;5076222;28;20063;-81
2024/01/16 11:25:51;;;;;;;4.32;3.63;;;7.30;70.70;;;;;;5076442;28;20028;-81
2024/01/16 11:28:17;;;;;;;4.40;3.33;;;7.30;70.70;;;;;;5075962;28;20042;-81
2024/01/16 11:30:43;;;;;;;4.60;3.22;;;7.30;70.60;;;;;;5076581;28;20145;-81
2024/01/16 11:33:31;;;;;;;4.28;3.58;;;7.30;70.50;;;;;;5076126;28;20035;-80
2024/01/16 11:35:57;;;;;;;3.80;3.28;;;7.30;70.40;;;;;;5075844;28;20086;-82
2024/01/16 11:38:26;;;;;;;3.67;3.30;;;7.30;70.40;;;;;;5074716;28;20032;-81
2024/01/16 11:40:54;;;;;;;4.50;3.50;;;7.30;70.40;;;;;;5074609;28;20090;-79
2024/01/16 11:43:36;;;;;;;4.00;3.13;;;7.30;70.30;;;;;;5075229;28;20078;-88
2024/01/16 11:46:11;;;;;;;4.47;3.42;;;7.30;70.10;;;;;;5074649;28;20055;-83
2024/01/16 11:48:39;;;;;;;3.85;3.20;;;7.30;70.20;;;;;;5075229;28;20060;-79
2024/01/16 11:51:24;;;;;;;3.30;3.00;;;7.30;70.70;;;;;;5068855;28;20391;-86
2024/01/16 11:53:50;;;;;;;3.30;3.00;;;7.30;70.00;;;;;;5078866;28;20033;-83
2024/01/16 11:56:54;;;;;;;3.10;2.80;;;7.30;70.00;;;;;;5106761;28;20016;-85
2024/01/16 11:59:58;;;;;;;3.50;3.03;;;7.30;70.00;;;;;;5101028;28;20048;-89
2024/01/16 12:02:38;;;;;;;3.30;3.00;;;7.30;69.90;;;;;;5085517;28;20026;-85
2024/01/16 12:05:06;;;;;;;3.35;2.92;;;7.30;69.90;;;;;;5082507;28;20020;-88
2024/01/16 12:07:45;;;;;;;3.15;2.85;;;7.30;70.00;;;;;;5098773;28;20028;-86
2024/01/16 12:10:11;;;;;;;3.00;2.70;;;7.30;69.90;;;;;;5097395;28;20107;-85
2024/01/16 12:12:38;;;;;;;3.53;3.22;;;7.40;69.90;;;;;;5110108;28;20111;-86
2024/01/16 12:15:04;;;;;;;3.10;2.80;;;7.40;69.80;;;;;;5080097;28;20024;-84
2024/01/16 12:17:29;;;;;;;3.42;3.13;;;7.50;69.80;;;;;;5076957;28;20046;-84
2024/01/16 12:19:56;;;;;;;3.20;2.90;;;7.50;69.70;;;;;;5076334;28;20107;-85
2024/01/16 12:22:22;;;;;;;3.03;2.75;;;7.50;69.50;;;;;;5074864;28;20427;-83
2024/01/16 12:24:48;;;;;;;3.20;2.90;;;7.60;69.50;;;;;;5094094;28;20028;-80
2024/01/16 12:27:15;;;;;;;3.85;3.00;;;7.60;69.50;;;;;;5074487;28;20025;-78
2024/01/16 12:29:41;;;;;;;3.63;2.70;;;7.60;69.30;;;;;;5093791;28;20074;-79
2024/01/16 12:32:15;;;;;;;2.65;2.45;;;7.70;69.30;;;;;;5074827;28;20469;-81
2024/01/16 12:34:47;;;;;;;3.13;2.72;;;7.70;69.10;;;;;;5098199;28;20080;-82
2024/01/16 12:37:14;;;;;;;2.70;2.50;;;7.70;69.00;;;;;;5094880;28;20036;-88
2024/01/16 12:39:43;;;;;;;2.75;2.50;;;7.70;69.00;;;;;;5081870;28;20032;-88
2024/01/16 12:42:10;;;;;;;3.17;2.88;;;7.70;68.80;;;;;;5084919;28;20039;-89
2024/01/16 12:44:36;;;;;;;2.90;2.70;;;7.70;68.80;;;;;;5101460;28;20035;-87
2024/01/16 12:47:02;;;;;;;3.92;2.53;;;7.70;68.80;;;;;;5100798;28;20107;-80
2024/01/16 12:49:28;;;;;;;2.70;2.50;;;7.70;68.80;;;;;;5093961;28;20073;-82
2024/01/16 12:52:21;;;;;;;2.70;2.50;;;7.70;68.70;;;;;;5076739;28;20028;-80
2024/01/16 12:54:49;;;;;;;2.78;2.58;;;7.70;68.60;;;;;;5077041;28;20050;-81